createdAt,value
2022-08-11T00:01:59.779Z,18.24
2022-08-11T00:04:34.517Z,18.35
2022-08-11T00:07:04.882Z,18.40
2022-08-11T00:09:39.278Z,18.39
2022-08-11T00:12:14.703Z,18.30
2022-08-11T00:14:43.440Z,18.04
2022-08-11T00:17:13.014Z,18.19
2022-08-11T00:20:12.273Z,18.13
2022-08-11T00:22:35.079Z,17.83
2022-08-11T00:25:11.454Z,17.68
2022-08-11T00:27:40.134Z,17.79
2022-08-11T00:30:12.317Z,17.74
2022-08-11T00:32:40.133Z,17.70
2022-08-11T00:35:51.413Z,17.85
2022-08-11T00:37:58.070Z,17.66
2022-08-11T00:40:37.644Z,17.87
2022-08-11T00:43:20.970Z,17.45
2022-08-11T00:46:06.458Z,17.35
2022-08-11T00:48:55.410Z,17.30
2022-08-11T00:52:02.060Z,17.13
2022-08-11T00:54:27.662Z,17.35
2022-08-11T00:57:36.356Z,17.58
2022-08-11T01:00:19.047Z,17.33
2022-08-11T01:03:18.030Z,17.46
2022-08-11T01:06:26.918Z,17.31
2022-08-11T01:09:17.961Z,17.52
2022-08-11T01:12:21.601Z,17.39
2022-08-11T01:15:07.603Z,17.51
2022-08-11T01:18:08.399Z,17.27
2022-08-11T01:21:17.651Z,17.43
2022-08-11T01:24:09.063Z,17.34
2022-08-11T01:27:19.040Z,17.31
2022-08-11T01:30:20.673Z,17.38
2022-08-11T01:33:02.594Z,17.05
2022-08-11T01:35:55.236Z,17.14
2022-08-11T01:38:46.636Z,17.18
2022-08-11T01:41:25.032Z,17.00
2022-08-11T01:44:39.712Z,16.92
2022-08-11T01:47:53.058Z,17.11
2022-08-11T01:50:38.362Z,17.11
2022-08-11T01:53:36.029Z,17.27
2022-08-11T01:56:22.431Z,16.98
2022-08-11T01:59:17.385Z,17.07
2022-08-11T02:02:44.433Z,16.90
2022-08-11T02:05:23.230Z,16.74
2022-08-11T02:07:58.338Z,16.86
2022-08-11T02:10:56.972Z,16.58
2022-08-11T02:13:53.503Z,16.65
2022-08-11T02:16:59.175Z,16.72
2022-08-11T02:20:09.287Z,16.77
2022-08-11T02:24:04.303Z,16.65
2022-08-11T02:26:23.154Z,16.53
2022-08-11T02:29:26.162Z,16.55
2022-08-11T02:32:42.807Z,16.90
2022-08-11T02:35:28.175Z,16.64
2022-08-11T02:38:16.411Z,16.71
2022-08-11T02:41:31.297Z,16.58
2022-08-11T02:44:20.869Z,16.54
2022-08-11T02:47:14.562Z,16.60
2022-08-11T02:50:07.680Z,16.36
2022-08-11T02:53:02.180Z,16.44
2022-08-11T02:55:57.912Z,16.51
2022-08-11T02:58:41.379Z,16.30
2022-08-11T03:01:28.606Z,16.45
2022-08-11T03:04:09.158Z,16.17
2022-08-11T03:06:52.484Z,16.27
2022-08-11T03:09:27.434Z,16.39
2022-08-11T03:12:53.820Z,16.11
2022-08-11T03:15:48.035Z,16.19
2022-08-11T03:18:26.914Z,16.14
2022-08-11T03:21:23.612Z,16.35
2022-08-11T03:24:03.462Z,16.32
2022-08-11T03:26:54.859Z,16.43
2022-08-11T03:29:35.675Z,16.30
2022-08-11T03:32:19.477Z,15.78
2022-08-11T03:34:48.160Z,15.78
2022-08-11T03:37:53.109Z,15.88
2022-08-11T03:40:38.235Z,15.76
2022-08-11T03:43:45.585Z,15.83
2022-08-11T03:46:35.939Z,15.83
2022-08-11T03:49:20.940Z,15.93
2022-08-11T03:51:55.790Z,15.53
2022-08-11T03:54:43.094Z,15.33
2022-08-11T03:57:30.833Z,15.46
2022-08-11T04:00:10.124Z,15.44
2022-08-11T04:02:57.661Z,15.58
2022-08-11T04:05:42.286Z,15.86
2022-08-11T04:08:11.850Z,15.93
2022-08-11T04:10:50.534Z,15.78
2022-08-11T04:13:23.116Z,15.67
2022-08-11T04:16:16.337Z,15.84
2022-08-11T04:19:47.235Z,15.81
2022-08-11T04:22:23.031Z,15.83
2022-08-11T04:25:16.272Z,15.68
2022-08-11T04:28:07.554Z,15.64
2022-08-11T04:30:56.008Z,15.86
2022-08-11T04:34:07.034Z,15.95
2022-08-11T04:37:13.607Z,15.90
2022-08-11T04:40:04.931Z,16.03
2022-08-11T04:43:21.622Z,16.29
2022-08-11T04:46:03.368Z,16.37
2022-08-11T04:49:10.942Z,16.52
2022-08-11T04:52:19.350Z,16.72
2022-08-11T04:55:37.817Z,16.82
2022-08-11T04:58:32.115Z,17.07
2022-08-11T05:01:42.376Z,17.23
2022-08-11T05:04:58.445Z,17.42
2022-08-11T05:07:52.530Z,17.61
2022-08-11T05:10:43.159Z,17.91
2022-08-11T05:13:30.362Z,18.14
2022-08-11T05:16:27.718Z,18.25
2022-08-11T05:19:16.256Z,18.05
2022-08-11T05:22:10.870Z,18.38
2022-08-11T05:25:03.024Z,18.38
2022-08-11T05:28:10.280Z,18.70
2022-08-11T05:31:00.439Z,19.06
2022-08-11T05:33:55.317Z,18.91
2022-08-11T05:36:37.451Z,18.66
2022-08-11T05:39:36.214Z,19.52
2022-08-11T05:42:29.858Z,20.10
2022-08-11T05:45:58.122Z,19.89
2022-08-11T05:48:40.815Z,20.48
2022-08-11T05:51:30.433Z,20.73
2022-08-11T05:54:29.283Z,20.74
2022-08-11T05:56:59.984Z,21.30
2022-08-11T05:59:31.071Z,21.31
2022-08-11T06:02:06.034Z,21.84
2022-08-11T06:04:34.411Z,21.75
2022-08-11T06:07:09.342Z,22.05
2022-08-11T06:09:49.235Z,22.55
2022-08-11T06:12:22.775Z,22.97
2022-08-11T06:14:57.186Z,22.97
2022-08-11T06:17:26.451Z,22.68
2022-08-11T06:20:13.237Z,23.27
2022-08-11T06:22:43.923Z,22.47
2022-08-11T06:25:12.346Z,23.35
2022-08-11T06:27:42.040Z,22.57
2022-08-11T06:30:19.460Z,22.60
2022-08-11T06:32:51.394Z,22.47
2022-08-11T06:35:37.988Z,23.76
2022-08-11T06:38:35.091Z,23.46
2022-08-11T06:41:25.978Z,24.19
2022-08-11T06:44:14.369Z,23.63
2022-08-11T06:46:44.115Z,24.92
2022-08-11T06:49:32.072Z,24.83
2022-08-11T06:52:32.132Z,25.34
2022-08-11T06:55:05.541Z,25.94
2022-08-11T06:57:56.351Z,26.62
2022-08-11T07:00:30.554Z,25.29
2022-08-11T07:03:11.591Z,24.93
2022-08-11T07:05:39.004Z,24.91
2022-08-11T07:09:02.322Z,25.97
2022-08-11T07:12:06.578Z,26.64
2022-08-11T07:15:00.131Z,25.69
2022-08-11T07:17:30.235Z,26.57
2022-08-11T07:20:19.891Z,26.48
2022-08-11T07:23:13.079Z,27.21
2022-08-11T07:26:01.185Z,26.56
2022-08-11T07:28:48.980Z,26.07
2022-08-11T07:31:40.682Z,27.84
2022-08-11T07:34:12.071Z,27.67
2022-08-11T07:36:46.067Z,28.25
2022-08-11T07:39:21.043Z,27.71
2022-08-11T07:41:50.531Z,28.35
2022-08-11T07:44:18.027Z,27.66
2022-08-11T07:47:09.298Z,26.06
2022-08-11T07:49:56.615Z,27.87
2022-08-11T07:52:32.249Z,27.60
2022-08-11T07:55:06.313Z,27.29
2022-08-11T07:58:15.017Z,27.00
2022-08-11T08:01:23.664Z,28.69
2022-08-11T08:04:09.806Z,28.50
2022-08-11T08:06:56.488Z,28.35
2022-08-11T08:09:43.220Z,28.59
2022-08-11T08:12:28.875Z,26.45
2022-08-11T08:15:15.651Z,27.38
2022-08-11T08:18:20.753Z,28.11
2022-08-11T08:20:45.491Z,26.79
2022-08-11T08:23:13.035Z,28.14
2022-08-11T08:25:41.920Z,28.59
2022-08-11T08:28:20.774Z,28.85
2022-08-11T08:30:56.197Z,28.82
2022-08-11T08:33:25.574Z,28.89
2022-08-11T08:36:11.607Z,29.85
2022-08-11T08:38:42.609Z,28.41
2022-08-11T08:41:10.218Z,28.15
2022-08-11T08:43:48.575Z,29.56
2022-08-11T08:46:22.189Z,30.48
2022-08-11T08:48:49.605Z,30.11
2022-08-11T08:52:01.463Z,28.22
2022-08-11T08:54:28.051Z,28.92
2022-08-11T08:56:56.828Z,28.97
2022-08-11T08:59:47.645Z,29.41
2022-08-11T09:02:14.479Z,29.89
2022-08-11T09:04:45.635Z,30.60
2022-08-11T09:07:15.414Z,30.22
2022-08-11T09:09:58.170Z,30.17
2022-08-11T09:12:36.579Z,30.80
2022-08-11T09:15:22.260Z,29.74
2022-08-11T09:17:53.367Z,30.38
2022-08-11T09:20:25.938Z,29.06
2022-08-11T09:24:08.720Z,31.20
2022-08-11T09:26:22.154Z,29.22
2022-08-11T09:28:58.108Z,30.98
2022-08-11T09:31:26.748Z,31.69
2022-08-11T09:33:55.446Z,32.24
2022-08-11T09:36:41.375Z,32.70
2022-08-11T09:39:27.792Z,32.19
2022-08-11T09:42:00.393Z,30.42
2022-08-11T09:44:49.218Z,31.67
2022-08-11T09:47:21.466Z,31.23
2022-08-11T09:49:49.049Z,29.90
2022-08-11T09:52:18.465Z,32.45
2022-08-11T09:54:48.751Z,32.60
2022-08-11T09:57:37.480Z,31.60
2022-08-11T10:00:09.559Z,32.06
2022-08-11T10:02:47.430Z,32.63
2022-08-11T10:05:36.759Z,33.47
2022-08-11T10:08:05.043Z,33.93
2022-08-11T10:10:36.293Z,33.08
2022-08-11T10:14:31.915Z,31.26
2022-08-11T10:16:14.630Z,31.95
2022-08-11T10:18:53.960Z,32.94
2022-08-11T10:21:37.562Z,33.48
2022-08-11T10:24:25.772Z,33.50
2022-08-11T10:26:54.870Z,32.24
2022-08-11T10:30:02.172Z,32.47
2022-08-11T10:32:58.524Z,30.56
2022-08-11T10:35:29.449Z,30.68
2022-08-11T10:38:05.848Z,31.22
2022-08-11T10:40:38.900Z,32.82
2022-08-11T10:43:10.367Z,34.41
2022-08-11T10:45:57.584Z,33.35
2022-08-11T10:48:26.942Z,32.58
2022-08-11T10:51:13.805Z,33.82
2022-08-11T10:54:12.348Z,34.41
2022-08-11T10:56:59.046Z,34.41
2022-08-11T10:59:28.234Z,34.75
2022-08-11T11:01:55.485Z,35.33
2022-08-11T11:04:40.050Z,36.38
2022-08-11T11:07:16.825Z,35.40
2022-08-11T11:09:46.385Z,35.00
2022-08-11T11:12:42.603Z,35.17
2022-08-11T11:15:29.263Z,35.24
2022-08-11T11:18:09.383Z,35.72
2022-08-11T11:20:47.674Z,35.62
2022-08-11T11:23:38.194Z,33.88
2022-08-11T11:26:27.544Z,33.67
2022-08-11T11:29:25.008Z,31.15
2022-08-11T11:32:19.571Z,33.33
2022-08-11T11:35:18.487Z,34.09
2022-08-11T11:38:03.403Z,33.69
2022-08-11T11:40:32.301Z,33.30
2022-08-11T11:43:00.537Z,33.92
2022-08-11T11:45:27.904Z,33.01
2022-08-11T11:47:56.228Z,33.32
2022-08-11T11:50:31.731Z,33.15
2022-08-11T11:53:01.997Z,34.69
2022-08-11T11:55:29.820Z,34.75
2022-08-11T11:58:18.825Z,34.05
2022-08-11T12:01:05.843Z,35.92
2022-08-11T12:03:34.470Z,34.79
2022-08-11T12:06:02.932Z,36.43
2022-08-11T12:08:31.246Z,34.38
2022-08-11T12:11:22.108Z,34.64
2022-08-11T12:13:52.114Z,33.33
2022-08-11T12:16:33.384Z,32.88
2022-08-11T12:19:05.908Z,33.79
2022-08-11T12:21:35.893Z,32.95
2022-08-11T12:24:22.369Z,33.77
2022-08-11T12:27:02.770Z,32.34
2022-08-11T12:29:41.133Z,30.37
2022-08-11T12:32:11.303Z,29.51
2022-08-11T12:34:38.109Z,29.36
2022-08-11T12:37:10.825Z,29.51
2022-08-11T12:40:16.811Z,31.52
2022-08-11T12:43:21.659Z,32.37
2022-08-11T12:45:58.437Z,32.49
2022-08-11T12:48:58.855Z,31.54
2022-08-11T12:52:01.599Z,32.32
2022-08-11T12:55:00.763Z,32.85
2022-08-11T12:58:03.733Z,32.85
2022-08-11T13:00:50.689Z,33.07
2022-08-11T13:03:38.844Z,34.58
2022-08-11T13:06:06.512Z,35.10
2022-08-11T13:08:36.716Z,34.78
2022-08-11T13:11:22.941Z,33.26
2022-08-11T13:13:57.068Z,29.86
2022-08-11T13:16:28.669Z,30.25
2022-08-11T13:18:57.912Z,31.01
2022-08-11T13:21:26.564Z,31.47
2022-08-11T13:24:01.086Z,30.84
2022-08-11T13:26:47.395Z,30.18
2022-08-11T13:29:23.305Z,32.00
2022-08-11T13:31:52.219Z,31.37
2022-08-11T13:34:21.377Z,32.78
2022-08-11T13:36:52.182Z,33.08
2022-08-11T13:39:22.869Z,32.89
2022-08-11T13:41:51.211Z,32.18
2022-08-11T13:44:24.814Z,33.90
2022-08-11T13:46:54.192Z,33.61
2022-08-11T13:49:22.013Z,33.31
2022-08-11T13:51:49.637Z,33.64
2022-08-11T13:54:21.491Z,33.47
2022-08-11T13:56:52.813Z,33.76
2022-08-11T13:59:23.100Z,33.47
2022-08-11T14:02:19.762Z,33.06
2022-08-11T14:04:49.539Z,34.73
2022-08-11T14:07:20.644Z,33.90
2022-08-11T14:09:48.251Z,32.54
2022-08-11T14:12:44.907Z,32.53
2022-08-11T14:15:19.933Z,32.09
2022-08-11T14:17:57.354Z,32.95
2022-08-11T14:20:39.374Z,31.88
2022-08-11T14:23:11.363Z,32.75
2022-08-11T14:26:02.291Z,31.78
2022-08-11T14:28:37.510Z,31.58
2022-08-11T14:31:09.606Z,31.67
2022-08-11T14:33:58.323Z,31.90
2022-08-11T14:36:28.659Z,32.12
2022-08-11T14:38:55.889Z,33.09
2022-08-11T14:42:12.462Z,32.40
2022-08-11T14:44:50.572Z,33.46
2022-08-11T14:47:24.066Z,33.66
2022-08-11T14:49:58.075Z,33.02
2022-08-11T14:52:39.175Z,32.64
2022-08-11T14:55:26.526Z,33.01
2022-08-11T14:57:56.693Z,33.00
2022-08-11T15:00:24.359Z,31.02
2022-08-11T15:03:10.518Z,30.66
2022-08-11T15:05:57.062Z,31.39
2022-08-11T15:08:52.629Z,31.06
2022-08-11T15:11:41.838Z,30.68
2022-08-11T15:14:10.416Z,30.52
2022-08-11T15:17:00.451Z,29.08
2022-08-11T15:19:29.979Z,29.10
2022-08-11T15:22:27.386Z,29.45
2022-08-11T15:24:54.762Z,29.48
2022-08-11T15:27:42.962Z,29.51
2022-08-11T15:30:33.199Z,28.91
2022-08-11T15:33:25.601Z,28.97
2022-08-11T15:36:26.643Z,29.64
2022-08-11T15:39:35.046Z,29.06
2022-08-11T15:42:30.797Z,29.41
2022-08-11T15:45:21.541Z,29.61
2022-08-11T15:48:02.479Z,29.77
2022-08-11T15:50:36.374Z,29.52
2022-08-11T15:53:11.858Z,29.20
2022-08-11T15:55:39.420Z,29.07
2022-08-11T15:58:28.130Z,29.36
2022-08-11T16:01:16.517Z,29.12
2022-08-11T16:04:12.193Z,29.01
2022-08-11T16:07:01.084Z,29.23
2022-08-11T16:09:46.020Z,28.90
2022-08-11T16:12:18.824Z,28.80
2022-08-11T16:15:09.132Z,28.63
2022-08-11T16:17:44.445Z,28.64
2022-08-11T16:20:14.479Z,28.57
2022-08-11T16:22:55.208Z,28.27
2022-08-11T16:27:03.823Z,28.70
2022-08-11T16:28:20.621Z,28.61
2022-08-11T16:30:49.057Z,28.80
2022-08-11T16:33:48.047Z,28.74
2022-08-11T16:36:24.291Z,28.64
2022-08-11T16:38:52.754Z,28.71
2022-08-11T16:41:42.735Z,28.40
2022-08-11T16:44:37.773Z,28.55
2022-08-11T16:47:07.712Z,28.27
2022-08-11T16:49:42.976Z,28.30
2022-08-11T16:52:15.171Z,27.97
2022-08-11T16:54:44.546Z,27.94
2022-08-11T16:57:42.813Z,27.85
2022-08-11T17:00:15.309Z,27.78
2022-08-11T17:03:05.995Z,27.61
2022-08-11T17:05:57.314Z,27.69
2022-08-11T17:09:03.438Z,27.56
2022-08-11T17:11:52.698Z,27.39
2022-08-11T17:14:50.248Z,27.28
2022-08-11T17:17:21.341Z,27.10
2022-08-11T17:20:39.564Z,27.22
2022-08-11T17:23:01.905Z,27.32
2022-08-11T17:25:32.268Z,27.23
2022-08-11T17:28:20.751Z,27.09
2022-08-11T17:31:21.998Z,26.86
2022-08-11T17:34:10.118Z,26.67
2022-08-11T17:36:41.660Z,26.94
2022-08-11T17:39:13.263Z,26.76
2022-08-11T17:41:59.059Z,26.66
2022-08-11T17:44:45.377Z,26.86
2022-08-11T17:47:32.204Z,26.75
2022-08-11T17:50:14.592Z,26.43
2022-08-11T17:53:04.425Z,26.78
2022-08-11T17:55:53.598Z,26.55
2022-08-11T17:58:40.009Z,26.52
2022-08-11T18:01:10.585Z,26.18
2022-08-11T18:03:40.707Z,26.22
2022-08-11T18:06:12.226Z,26.42
2022-08-11T18:09:03.649Z,26.32
2022-08-11T18:12:06.826Z,26.20
2022-08-11T18:14:58.549Z,26.02
2022-08-11T18:17:43.860Z,26.17
2022-08-11T18:20:29.290Z,26.13
2022-08-11T18:23:15.089Z,25.87
2022-08-11T18:26:06.461Z,25.99
2022-08-11T18:29:02.358Z,25.89
2022-08-11T18:31:54.234Z,25.87
2022-08-11T18:34:48.295Z,25.78
2022-08-11T18:37:38.031Z,25.68
2022-08-11T18:40:29.837Z,25.77
2022-08-11T18:43:20.345Z,25.77
2022-08-11T18:46:10.544Z,25.51
2022-08-11T18:49:10.638Z,25.72
2022-08-11T18:52:00.143Z,25.67
2022-08-11T18:54:48.879Z,25.50
2022-08-11T18:57:49.405Z,25.44
2022-08-11T19:00:41.748Z,25.31
2022-08-11T19:03:29.866Z,25.25
2022-08-11T19:06:38.234Z,25.22
2022-08-11T19:09:26.129Z,25.19
2022-08-11T19:12:13.417Z,25.28
2022-08-11T19:15:00.110Z,25.21
2022-08-11T19:17:46.885Z,25.28
2022-08-11T19:20:36.500Z,25.35
2022-08-11T19:23:24.866Z,25.26
2022-08-11T19:26:11.760Z,24.98
2022-08-11T19:29:00.456Z,24.99
2022-08-11T19:31:46.679Z,25.02
2022-08-11T19:34:35.536Z,25.00
2022-08-11T19:37:25.041Z,24.78
2022-08-11T19:40:13.069Z,25.11
2022-08-11T19:43:00.176Z,25.24
2022-08-11T19:45:52.629Z,24.93
2022-08-11T19:48:43.348Z,24.91
2022-08-11T19:51:30.078Z,24.76
2022-08-11T19:54:17.822Z,24.93
2022-08-11T19:57:04.546Z,24.66
2022-08-11T19:59:50.738Z,24.73
2022-08-11T20:02:35.947Z,24.98
2022-08-11T20:05:21.173Z,24.89
2022-08-11T20:08:08.057Z,24.75
2022-08-11T20:10:55.232Z,24.92
2022-08-11T20:13:43.577Z,24.83
2022-08-11T20:16:33.132Z,24.69
2022-08-11T20:19:26.349Z,24.68
2022-08-11T20:22:27.005Z,24.78
2022-08-11T20:25:14.362Z,24.81
2022-08-11T20:28:03.884Z,24.96
2022-08-11T20:30:51.698Z,24.71
2022-08-11T20:33:39.284Z,24.78
2022-08-11T20:36:26.011Z,24.58
2022-08-11T20:39:12.680Z,24.64
2022-08-11T20:42:00.096Z,24.65
2022-08-11T20:44:47.720Z,24.54
2022-08-11T20:47:59.403Z,24.51
2022-08-11T20:50:41.475Z,24.54
2022-08-11T20:53:35.977Z,24.48
2022-08-11T20:56:28.906Z,24.47
2022-08-11T20:59:21.484Z,24.52
2022-08-11T21:02:09.949Z,24.64
2022-08-11T21:04:57.375Z,24.39
2022-08-11T21:07:55.494Z,24.45
2022-08-11T21:10:47.019Z,24.34
2022-08-11T21:13:37.200Z,24.82
2022-08-11T21:16:26.627Z,24.35
2022-08-11T21:19:59.568Z,24.43
2022-08-11T21:22:59.299Z,24.16
2022-08-11T21:25:59.241Z,24.22
2022-08-11T21:28:46.112Z,24.14
2022-08-11T21:31:32.751Z,24.03
2022-08-11T21:34:18.586Z,24.03
2022-08-11T21:37:05.050Z,23.75
2022-08-11T21:39:51.845Z,23.91
2022-08-11T21:42:39.310Z,23.77
2022-08-11T21:45:27.577Z,23.92
2022-08-11T21:48:14.671Z,23.85
2022-08-11T21:50:59.947Z,23.76
2022-08-11T21:53:46.059Z,23.75
2022-08-11T21:56:32.286Z,23.89
2022-08-11T21:59:18.587Z,23.73
2022-08-11T22:02:06.183Z,23.48
2022-08-11T22:04:55.297Z,23.56
2022-08-11T22:07:41.256Z,23.72
2022-08-11T22:10:37.662Z,23.60
2022-08-11T22:13:27.206Z,23.23
2022-08-11T22:16:12.814Z,23.04
2022-08-11T22:18:58.204Z,22.94
2022-08-11T22:22:01.409Z,22.97
2022-08-11T22:24:51.621Z,22.55
2022-08-11T22:27:37.259Z,22.49
2022-08-11T22:30:25.794Z,22.44
2022-08-11T22:33:11.615Z,22.60
2022-08-11T22:36:00.897Z,22.57
2022-08-11T22:38:47.434Z,22.58
2022-08-11T22:41:32.676Z,22.44
2022-08-11T22:44:17.820Z,22.21
2022-08-11T22:47:03.571Z,22.40
2022-08-11T22:49:58.265Z,22.52
2022-08-11T22:52:46.810Z,22.35
2022-08-11T22:55:33.993Z,22.43
2022-08-11T22:58:21.112Z,22.44
2022-08-11T23:01:08.056Z,22.44
2022-08-11T23:03:54.450Z,22.45
2022-08-11T23:06:40.578Z,22.34
2022-08-11T23:09:28.365Z,22.16
2022-08-11T23:12:13.743Z,22.02
2022-08-11T23:14:59.430Z,21.76
2022-08-11T23:17:46.028Z,21.91
2022-08-11T23:20:43.302Z,22.25
2022-08-11T23:23:31.626Z,21.95
2022-08-11T23:26:17.863Z,22.23
2022-08-11T23:29:05.147Z,22.21
2022-08-11T23:31:53.479Z,22.29
2022-08-11T23:35:03.791Z,22.29
2022-08-11T23:37:48.175Z,22.10
2022-08-11T23:40:33.307Z,22.17
2022-08-11T23:43:19.764Z,21.88
2022-08-11T23:46:05.048Z,22.04
2022-08-11T23:48:51.266Z,21.88
2022-08-11T23:51:41.248Z,21.82
2022-08-11T23:54:31.584Z,21.60
2022-08-11T23:57:21.784Z,21.70
